sensor_id;sensor_type;location;lat;lon;timestamp;temperature;humidity
16781;DHT22;8507;50.056;8.248;2023-04-09T00:00:38;9.10;99.90
16781;DHT22;8507;50.056;8.248;2023-04-09T00:03:03;9.10;99.90
16781;DHT22;8507;50.056;8.248;2023-04-09T00:05:29;9.10;99.90
16781;DHT22;8507;50.056;8.248;2023-04-09T00:07:55;9.00;99.90
16781;DHT22;8507;50.056;8.248;2023-04-09T00:10:22;9.00;99.90
16781;DHT22;8507;50.056;8.248;2023-04-09T00:12:48;9.00;99.90
16781;DHT22;8507;50.056;8.248;2023-04-09T00:15:13;9.10;99.90
16781;DHT22;8507;50.056;8.248;2023-04-09T00:17:39;9.10;99.90
16781;DHT22;8507;50.056;8.248;2023-04-09T00:20:05;9.20;99.90
16781;DHT22;8507;50.056;8.248;2023-04-09T00:22:32;9.10;99.90
16781;DHT22;8507;50.056;8.248;2023-04-09T00:24:57;9.00;99.90
16781;DHT22;8507;50.056;8.248;2023-04-09T00:27:23;9.00;99.90
16781;DHT22;8507;50.056;8.248;2023-04-09T00:29:48;9.00;99.90
16781;DHT22;8507;50.056;8.248;2023-04-09T00:32:14;8.90;99.90
16781;DHT22;8507;50.056;8.248;2023-04-09T00:34:39;8.90;99.90
16781;DHT22;8507;50.056;8.248;2023-04-09T00:37:05;8.90;99.90
16781;DHT22;8507;50.056;8.248;2023-04-09T00:39:31;8.80;99.90
16781;DHT22;8507;50.056;8.248;2023-04-09T00:42:00;8.90;99.90
16781;DHT22;8507;50.056;8.248;2023-04-09T00:44:29;8.80;99.90
16781;DHT22;8507;50.056;8.248;2023-04-09T00:46:55;8.90;99.90
16781;DHT22;8507;50.056;8.248;2023-04-09T00:49:22;9.00;99.90
16781;DHT22;8507;50.056;8.248;2023-04-09T00:51:50;9.00;99.90
16781;DHT22;8507;50.056;8.248;2023-04-09T00:54:16;9.00;99.90
16781;DHT22;8507;50.056;8.248;2023-04-09T00:56:42;8.90;99.90
16781;DHT22;8507;50.056;8.248;2023-04-09T00:59:08;8.90;99.90
16781;DHT22;8507;50.056;8.248;2023-04-09T01:01:34;8.80;99.90
16781;DHT22;8507;50.056;8.248;2023-04-09T01:03:59;8.80;99.90
16781;DHT22;8507;50.056;8.248;2023-04-09T01:14:07;8.70;99.90
16781;DHT22;8507;50.056;8.248;2023-04-09T01:16:37;8.70;99.90
16781;DHT22;8507;50.056;8.248;2023-04-09T01:19:14;8.70;99.90
16781;DHT22;8507;50.056;8.248;2023-04-09T01:21:43;8.70;99.90
16781;DHT22;8507;50.056;8.248;2023-04-09T01:26:58;8.60;99.90
16781;DHT22;8507;50.056;8.248;2023-04-09T01:29:30;8.50;99.90
16781;DHT22;8507;50.056;8.248;2023-04-09T01:31:56;8.50;99.90
16781;DHT22;8507;50.056;8.248;2023-04-09T01:34:24;8.50;99.90
16781;DHT22;8507;50.056;8.248;2023-04-09T01:36:55;8.50;99.90
16781;DHT22;8507;50.056;8.248;2023-04-09T01:39:22;8.50;99.90
16781;DHT22;8507;50.056;8.248;2023-04-09T01:41:49;8.50;99.90
16781;DHT22;8507;50.056;8.248;2023-04-09T01:44:16;8.40;99.90
16781;DHT22;8507;50.056;8.248;2023-04-09T01:46:42;8.40;99.90
16781;DHT22;8507;50.056;8.248;2023-04-09T01:49:09;8.30;99.90
16781;DHT22;8507;50.056;8.248;2023-04-09T01:51:35;8.20;99.90
16781;DHT22;8507;50.056;8.248;2023-04-09T01:54:02;8.10;99.90
16781;DHT22;8507;50.056;8.248;2023-04-09T01:56:38;8.00;99.90
16781;DHT22;8507;50.056;8.248;2023-04-09T01:59:03;7.90;99.90
16781;DHT22;8507;50.056;8.248;2023-04-09T02:01:37;7.80;99.90
16781;DHT22;8507;50.056;8.248;2023-04-09T02:04:07;7.70;99.90
16781;DHT22;8507;50.056;8.248;2023-04-09T02:06:41;7.60;99.90
16781;DHT22;8507;50.056;8.248;2023-04-09T02:09:08;7.50;99.90
16781;DHT22;8507;50.056;8.248;2023-04-09T02:11:38;7.40;99.90
16781;DHT22;8507;50.056;8.248;2023-04-09T02:14:06;7.40;99.90
16781;DHT22;8507;50.056;8.248;2023-04-09T02:16:33;7.40;99.90
16781;DHT22;8507;50.056;8.248;2023-04-09T02:18:59;7.40;99.90
16781;DHT22;8507;50.056;8.248;2023-04-09T02:21:26;7.30;99.90
16781;DHT22;8507;50.056;8.248;2023-04-09T02:23:53;7.30;99.90
16781;DHT22;8507;50.056;8.248;2023-04-09T02:26:20;7.30;99.90
16781;DHT22;8507;50.056;8.248;2023-04-09T02:28:45;7.30;99.90
16781;DHT22;8507;50.056;8.248;2023-04-09T02:31:11;7.20;99.90
16781;DHT22;8507;50.056;8.248;2023-04-09T02:33:36;7.20;99.90
16781;DHT22;8507;50.056;8.248;2023-04-09T02:36:02;7.20;99.90
16781;DHT22;8507;50.056;8.248;2023-04-09T02:38:28;7.20;99.90
16781;DHT22;8507;50.056;8.248;2023-04-09T02:40:53;7.20;99.90
16781;DHT22;8507;50.056;8.248;2023-04-09T02:43:19;7.20;99.90
16781;DHT22;8507;50.056;8.248;2023-04-09T02:45:44;7.20;99.90
16781;DHT22;8507;50.056;8.248;2023-04-09T02:48:10;7.10;99.90
16781;DHT22;8507;50.056;8.248;2023-04-09T02:50:35;7.10;99.90
16781;DHT22;8507;50.056;8.248;2023-04-09T02:53:01;7.10;99.90
16781;DHT22;8507;50.056;8.248;2023-04-09T02:55:27;7.10;99.90
16781;DHT22;8507;50.056;8.248;2023-04-09T02:57:52;7.10;99.90
16781;DHT22;8507;50.056;8.248;2023-04-09T03:00:18;7.10;99.90
16781;DHT22;8507;50.056;8.248;2023-04-09T03:02:44;7.10;99.90
16781;DHT22;8507;50.056;8.248;2023-04-09T03:05:09;7.00;99.90
16781;DHT22;8507;50.056;8.248;2023-04-09T03:07:35;7.00;99.90
16781;DHT22;8507;50.056;8.248;2023-04-09T03:10:00;7.00;99.90
16781;DHT22;8507;50.056;8.248;2023-04-09T03:12:26;7.00;99.90
16781;DHT22;8507;50.056;8.248;2023-04-09T03:14:51;7.00;99.90
16781;DHT22;8507;50.056;8.248;2023-04-09T03:17:17;6.90;99.90
16781;DHT22;8507;50.056;8.248;2023-04-09T03:19:42;6.80;99.90
16781;DHT22;8507;50.056;8.248;2023-04-09T03:22:08;6.70;99.90
16781;DHT22;8507;50.056;8.248;2023-04-09T03:24:33;6.70;99.90
16781;DHT22;8507;50.056;8.248;2023-04-09T03:26:59;6.70;99.90
16781;DHT22;8507;50.056;8.248;2023-04-09T03:29:24;6.60;99.90
16781;DHT22;8507;50.056;8.248;2023-04-09T03:31:50;6.60;99.90
16781;DHT22;8507;50.056;8.248;2023-04-09T03:34:16;6.60;99.90
16781;DHT22;8507;50.056;8.248;2023-04-09T03:36:41;6.60;99.90
16781;DHT22;8507;50.056;8.248;2023-04-09T03:39:07;6.60;99.90
16781;DHT22;8507;50.056;8.248;2023-04-09T03:41:32;6.50;99.90
16781;DHT22;8507;50.056;8.248;2023-04-09T03:43:58;6.50;99.90
16781;DHT22;8507;50.056;8.248;2023-04-09T03:46:23;6.50;99.90
16781;DHT22;8507;50.056;8.248;2023-04-09T03:48:49;6.50;99.90
16781;DHT22;8507;50.056;8.248;2023-04-09T03:51:16;6.50;99.90
16781;DHT22;8507;50.056;8.248;2023-04-09T03:53:41;6.50;99.90
16781;DHT22;8507;50.056;8.248;2023-04-09T03:56:08;6.40;99.90
16781;DHT22;8507;50.056;8.248;2023-04-09T03:58:34;6.30;99.90
16781;DHT22;8507;50.056;8.248;2023-04-09T04:01:00;6.20;99.90
16781;DHT22;8507;50.056;8.248;2023-04-09T04:03:25;6.20;99.90
16781;DHT22;8507;50.056;8.248;2023-04-09T04:05:51;6.20;99.90
16781;DHT22;8507;50.056;8.248;2023-04-09T04:08:16;6.10;99.90
16781;DHT22;8507;50.056;8.248;2023-04-09T04:10:42;6.10;99.90
16781;DHT22;8507;50.056;8.248;2023-04-09T04:13:07;6.10;99.90
16781;DHT22;8507;50.056;8.248;2023-04-09T04:15:38;6.10;99.90
16781;DHT22;8507;50.056;8.248;2023-04-09T04:18:05;6.10;99.90
16781;DHT22;8507;50.056;8.248;2023-04-09T04:20:33;6.00;99.90
16781;DHT22;8507;50.056;8.248;2023-04-09T04:22:59;6.00;99.90
16781;DHT22;8507;50.056;8.248;2023-04-09T04:25:25;6.00;99.90
16781;DHT22;8507;50.056;8.248;2023-04-09T04:27:50;6.00;99.90
16781;DHT22;8507;50.056;8.248;2023-04-09T04:30:16;6.00;99.90
16781;DHT22;8507;50.056;8.248;2023-04-09T04:32:42;6.00;99.90
16781;DHT22;8507;50.056;8.248;2023-04-09T04:35:07;5.90;99.90
16781;DHT22;8507;50.056;8.248;2023-04-09T04:37:33;6.00;99.90
16781;DHT22;8507;50.056;8.248;2023-04-09T04:40:02;6.00;99.90
16781;DHT22;8507;50.056;8.248;2023-04-09T04:42:29;5.90;99.90
16781;DHT22;8507;50.056;8.248;2023-04-09T04:44:55;5.90;99.90
16781;DHT22;8507;50.056;8.248;2023-04-09T04:47:20;5.90;99.90
16781;DHT22;8507;50.056;8.248;2023-04-09T04:49:46;5.90;99.90
16781;DHT22;8507;50.056;8.248;2023-04-09T04:52:12;5.90;99.90
16781;DHT22;8507;50.056;8.248;2023-04-09T04:54:37;5.90;99.90
16781;DHT22;8507;50.056;8.248;2023-04-09T04:57:03;5.90;99.90
16781;DHT22;8507;50.056;8.248;2023-04-09T04:59:29;5.90;99.90
16781;DHT22;8507;50.056;8.248;2023-04-09T05:01:54;5.90;99.90
16781;DHT22;8507;50.056;8.248;2023-04-09T05:04:20;5.90;99.90
16781;DHT22;8507;50.056;8.248;2023-04-09T05:06:45;5.90;99.90
16781;DHT22;8507;50.056;8.248;2023-04-09T05:09:11;5.90;99.90
16781;DHT22;8507;50.056;8.248;2023-04-09T05:11:36;5.90;99.90
16781;DHT22;8507;50.056;8.248;2023-04-09T05:14:02;5.90;99.90
16781;DHT22;8507;50.056;8.248;2023-04-09T05:16:29;5.80;99.90
16781;DHT22;8507;50.056;8.248;2023-04-09T05:18:54;5.80;99.90
16781;DHT22;8507;50.056;8.248;2023-04-09T05:21:20;5.80;99.90
16781;DHT22;8507;50.056;8.248;2023-04-09T05:23:45;5.80;99.90
16781;DHT22;8507;50.056;8.248;2023-04-09T05:26:11;5.80;99.90
16781;DHT22;8507;50.056;8.248;2023-04-09T05:28:36;5.90;99.90
16781;DHT22;8507;50.056;8.248;2023-04-09T05:31:02;6.00;99.90
16781;DHT22;8507;50.056;8.248;2023-04-09T05:33:28;6.10;99.90
16781;DHT22;8507;50.056;8.248;2023-04-09T05:35:53;6.10;99.90
16781;DHT22;8507;50.056;8.248;2023-04-09T05:38:19;6.20;99.90
16781;DHT22;8507;50.056;8.248;2023-04-09T05:40:44;6.30;99.90
16781;DHT22;8507;50.056;8.248;2023-04-09T05:43:10;6.40;99.90
16781;DHT22;8507;50.056;8.248;2023-04-09T05:45:36;6.40;99.90
16781;DHT22;8507;50.056;8.248;2023-04-09T05:48:02;6.50;99.90
16781;DHT22;8507;50.056;8.248;2023-04-09T05:50:27;6.50;99.90
16781;DHT22;8507;50.056;8.248;2023-04-09T05:52:53;6.60;99.90
16781;DHT22;8507;50.056;8.248;2023-04-09T05:55:18;6.70;99.90
16781;DHT22;8507;50.056;8.248;2023-04-09T05:57:44;6.70;99.90
16781;DHT22;8507;50.056;8.248;2023-04-09T06:00:10;6.90;99.90
16781;DHT22;8507;50.056;8.248;2023-04-09T06:02:36;7.00;99.90
16781;DHT22;8507;50.056;8.248;2023-04-09T06:05:02;7.30;99.90
16781;DHT22;8507;50.056;8.248;2023-04-09T06:07:28;7.40;99.90
16781;DHT22;8507;50.056;8.248;2023-04-09T06:09:54;7.50;99.90
16781;DHT22;8507;50.056;8.248;2023-04-09T06:12:20;7.60;99.90
16781;DHT22;8507;50.056;8.248;2023-04-09T06:14:47;7.60;99.90
16781;DHT22;8507;50.056;8.248;2023-04-09T06:17:13;7.70;99.90
16781;DHT22;8507;50.056;8.248;2023-04-09T06:19:38;7.80;99.90
16781;DHT22;8507;50.056;8.248;2023-04-09T06:22:04;7.90;99.90
16781;DHT22;8507;50.056;8.248;2023-04-09T06:24:31;8.00;99.90
16781;DHT22;8507;50.056;8.248;2023-04-09T06:26:57;8.10;99.90
16781;DHT22;8507;50.056;8.248;2023-04-09T06:29:22;8.30;99.90
16781;DHT22;8507;50.056;8.248;2023-04-09T06:31:48;8.20;99.90
16781;DHT22;8507;50.056;8.248;2023-04-09T06:34:14;8.40;99.90
16781;DHT22;8507;50.056;8.248;2023-04-09T06:36:39;8.50;99.90
16781;DHT22;8507;50.056;8.248;2023-04-09T06:39:05;8.60;99.90
16781;DHT22;8507;50.056;8.248;2023-04-09T06:41:32;8.90;99.90
16781;DHT22;8507;50.056;8.248;2023-04-09T06:43:58;9.20;99.90
16781;DHT22;8507;50.056;8.248;2023-04-09T06:46:23;9.10;99.90
16781;DHT22;8507;50.056;8.248;2023-04-09T06:48:49;9.50;99.90
16781;DHT22;8507;50.056;8.248;2023-04-09T06:51:14;9.50;99.90
16781;DHT22;8507;50.056;8.248;2023-04-09T06:53:40;9.10;99.90
16781;DHT22;8507;50.056;8.248;2023-04-09T06:56:06;9.10;99.90
16781;DHT22;8507;50.056;8.248;2023-04-09T06:58:32;9.10;99.90
16781;DHT22;8507;50.056;8.248;2023-04-09T07:00:58;9.30;99.90
16781;DHT22;8507;50.056;8.248;2023-04-09T07:03:24;9.50;99.90
16781;DHT22;8507;50.056;8.248;2023-04-09T07:05:50;9.70;99.90
16781;DHT22;8507;50.056;8.248;2023-04-09T07:08:16;9.70;99.90
16781;DHT22;8507;50.056;8.248;2023-04-09T07:10:41;10.00;99.90
16781;DHT22;8507;50.056;8.248;2023-04-09T07:13:07;9.70;99.90
16781;DHT22;8507;50.056;8.248;2023-04-09T07:15:33;9.70;99.90
16781;DHT22;8507;50.056;8.248;2023-04-09T07:17:58;10.00;99.90
16781;DHT22;8507;50.056;8.248;2023-04-09T07:20:24;9.70;99.90
16781;DHT22;8507;50.056;8.248;2023-04-09T07:22:50;9.60;99.90
16781;DHT22;8507;50.056;8.248;2023-04-09T07:25:15;9.80;99.90
16781;DHT22;8507;50.056;8.248;2023-04-09T07:27:41;9.90;99.90
16781;DHT22;8507;50.056;8.248;2023-04-09T07:30:08;10.00;99.90
16781;DHT22;8507;50.056;8.248;2023-04-09T07:32:35;10.10;99.90
16781;DHT22;8507;50.056;8.248;2023-04-09T07:35:02;10.30;99.90
16781;DHT22;8507;50.056;8.248;2023-04-09T07:37:28;10.10;99.90
16781;DHT22;8507;50.056;8.248;2023-04-09T07:39:54;10.40;99.90
16781;DHT22;8507;50.056;8.248;2023-04-09T07:42:20;10.40;99.90
16781;DHT22;8507;50.056;8.248;2023-04-09T07:44:46;10.40;99.90
16781;DHT22;8507;50.056;8.248;2023-04-09T07:47:12;10.30;99.90
16781;DHT22;8507;50.056;8.248;2023-04-09T07:49:37;10.60;99.90
16781;DHT22;8507;50.056;8.248;2023-04-09T07:52:03;10.70;99.90
16781;DHT22;8507;50.056;8.248;2023-04-09T07:54:29;11.10;99.90
16781;DHT22;8507;50.056;8.248;2023-04-09T07:56:56;11.30;99.90
16781;DHT22;8507;50.056;8.248;2023-04-09T07:59:22;11.10;99.90
16781;DHT22;8507;50.056;8.248;2023-04-09T08:01:48;11.60;99.90
16781;DHT22;8507;50.056;8.248;2023-04-09T08:04:14;11.70;99.90
16781;DHT22;8507;50.056;8.248;2023-04-09T08:06:39;11.20;99.90
16781;DHT22;8507;50.056;8.248;2023-04-09T08:09:05;11.50;99.90
16781;DHT22;8507;50.056;8.248;2023-04-09T08:11:31;11.50;99.90
16781;DHT22;8507;50.056;8.248;2023-04-09T08:13:57;11.70;99.90
16781;DHT22;8507;50.056;8.248;2023-04-09T08:16:23;12.10;99.90
16781;DHT22;8507;50.056;8.248;2023-04-09T08:18:52;12.10;99.90
16781;DHT22;8507;50.056;8.248;2023-04-09T08:21:18;12.50;99.90
16781;DHT22;8507;50.056;8.248;2023-04-09T08:23:43;12.00;99.90
16781;DHT22;8507;50.056;8.248;2023-04-09T08:26:09;12.00;99.90
16781;DHT22;8507;50.056;8.248;2023-04-09T08:28:35;12.30;99.90
16781;DHT22;8507;50.056;8.248;2023-04-09T08:31:00;12.40;99.90
16781;DHT22;8507;50.056;8.248;2023-04-09T08:33:26;12.60;99.90
16781;DHT22;8507;50.056;8.248;2023-04-09T08:35:51;12.70;99.90
16781;DHT22;8507;50.056;8.248;2023-04-09T08:38:20;12.90;99.90
16781;DHT22;8507;50.056;8.248;2023-04-09T08:40:46;11.60;99.90
16781;DHT22;8507;50.056;8.248;2023-04-09T08:43:14;11.90;99.90
16781;DHT22;8507;50.056;8.248;2023-04-09T08:45:43;12.10;99.90
16781;DHT22;8507;50.056;8.248;2023-04-09T08:48:09;11.60;99.90
16781;DHT22;8507;50.056;8.248;2023-04-09T08:50:37;11.90;99.90
16781;DHT22;8507;50.056;8.248;2023-04-09T08:53:04;11.20;99.90
16781;DHT22;8507;50.056;8.248;2023-04-09T08:55:31;11.00;99.90
16781;DHT22;8507;50.056;8.248;2023-04-09T08:57:59;11.50;99.90
16781;DHT22;8507;50.056;8.248;2023-04-09T09:00:25;12.20;99.90
16781;DHT22;8507;50.056;8.248;2023-04-09T09:03:20;12.60;99.90
16781;DHT22;8507;50.056;8.248;2023-04-09T09:05:46;12.20;99.90
16781;DHT22;8507;50.056;8.248;2023-04-09T09:08:23;13.00;99.90
16781;DHT22;8507;50.056;8.248;2023-04-09T09:10:48;13.50;99.90
16781;DHT22;8507;50.056;8.248;2023-04-09T09:15:51;13.00;99.90
16781;DHT22;8507;50.056;8.248;2023-04-09T09:18:20;13.20;99.90
16781;DHT22;8507;50.056;8.248;2023-04-09T09:20:46;12.70;99.90
16781;DHT22;8507;50.056;8.248;2023-04-09T09:23:12;12.40;99.90
16781;DHT22;8507;50.056;8.248;2023-04-09T09:25:39;12.70;99.90
16781;DHT22;8507;50.056;8.248;2023-04-09T09:28:11;13.00;99.90
16781;DHT22;8507;50.056;8.248;2023-04-09T09:30:38;13.40;99.90
16781;DHT22;8507;50.056;8.248;2023-04-09T09:33:10;13.50;99.90
16781;DHT22;8507;50.056;8.248;2023-04-09T09:35:50;13.60;99.90
16781;DHT22;8507;50.056;8.248;2023-04-09T09:38:16;14.00;99.90
16781;DHT22;8507;50.056;8.248;2023-04-09T09:40:42;14.10;99.90
16781;DHT22;8507;50.056;8.248;2023-04-09T09:43:08;14.50;99.90
16781;DHT22;8507;50.056;8.248;2023-04-09T09:45:35;14.60;99.90
16781;DHT22;8507;50.056;8.248;2023-04-09T09:48:03;14.70;99.90
16781;DHT22;8507;50.056;8.248;2023-04-09T09:50:30;14.40;99.90
16781;DHT22;8507;50.056;8.248;2023-04-09T09:53:01;14.30;99.90
16781;DHT22;8507;50.056;8.248;2023-04-09T09:55:30;14.50;99.90
16781;DHT22;8507;50.056;8.248;2023-04-09T09:57:59;14.90;99.90
16781;DHT22;8507;50.056;8.248;2023-04-09T10:00:26;15.00;99.90
16781;DHT22;8507;50.056;8.248;2023-04-09T10:02:56;15.30;99.90
16781;DHT22;8507;50.056;8.248;2023-04-09T10:05:23;14.60;99.90
16781;DHT22;8507;50.056;8.248;2023-04-09T10:07:53;14.80;99.90
16781;DHT22;8507;50.056;8.248;2023-04-09T10:10:19;14.80;99.90
16781;DHT22;8507;50.056;8.248;2023-04-09T10:12:45;14.20;99.90
16781;DHT22;8507;50.056;8.248;2023-04-09T10:15:11;13.70;99.90
16781;DHT22;8507;50.056;8.248;2023-04-09T10:17:37;13.20;99.90
16781;DHT22;8507;50.056;8.248;2023-04-09T10:20:22;13.30;99.90
16781;DHT22;8507;50.056;8.248;2023-04-09T10:22:49;13.90;99.90
16781;DHT22;8507;50.056;8.248;2023-04-09T10:25:16;14.60;99.90
16781;DHT22;8507;50.056;8.248;2023-04-09T10:27:42;15.00;99.90
16781;DHT22;8507;50.056;8.248;2023-04-09T10:30:33;14.40;99.90
16781;DHT22;8507;50.056;8.248;2023-04-09T10:33:09;14.20;99.90
16781;DHT22;8507;50.056;8.248;2023-04-09T10:35:35;14.40;99.90
16781;DHT22;8507;50.056;8.248;2023-04-09T10:38:00;14.60;99.90
16781;DHT22;8507;50.056;8.248;2023-04-09T10:40:27;13.30;99.90
16781;DHT22;8507;50.056;8.248;2023-04-09T10:42:54;13.30;99.90
16781;DHT22;8507;50.056;8.248;2023-04-09T10:45:20;13.50;99.90
16781;DHT22;8507;50.056;8.248;2023-04-09T10:47:49;14.30;99.90
16781;DHT22;8507;50.056;8.248;2023-04-09T10:50:16;13.70;99.90
16781;DHT22;8507;50.056;8.248;2023-04-09T10:52:42;13.40;99.90
16781;DHT22;8507;50.056;8.248;2023-04-09T10:55:09;14.20;99.90
16781;DHT22;8507;50.056;8.248;2023-04-09T10:57:35;15.00;99.90
16781;DHT22;8507;50.056;8.248;2023-04-09T11:00:00;15.40;99.90
16781;DHT22;8507;50.056;8.248;2023-04-09T11:07:56;15.30;99.90
16781;DHT22;8507;50.056;8.248;2023-04-09T11:10:22;14.70;99.90
16781;DHT22;8507;50.056;8.248;2023-04-09T11:12:48;15.20;99.90
16781;DHT22;8507;50.056;8.248;2023-04-09T11:15:17;15.60;99.90
16781;DHT22;8507;50.056;8.248;2023-04-09T11:17:45;15.70;99.90
16781;DHT22;8507;50.056;8.248;2023-04-09T11:20:12;15.60;99.90
16781;DHT22;8507;50.056;8.248;2023-04-09T11:22:38;15.00;99.90
16781;DHT22;8507;50.056;8.248;2023-04-09T11:25:03;14.70;99.90
16781;DHT22;8507;50.056;8.248;2023-04-09T11:27:29;14.10;99.90
16781;DHT22;8507;50.056;8.248;2023-04-09T11:29:55;14.30;99.90
16781;DHT22;8507;50.056;8.248;2023-04-09T11:32:21;14.60;99.90
16781;DHT22;8507;50.056;8.248;2023-04-09T11:34:46;14.30;99.90
16781;DHT22;8507;50.056;8.248;2023-04-09T11:37:15;14.20;99.90
16781;DHT22;8507;50.056;8.248;2023-04-09T11:39:44;13.90;99.90
16781;DHT22;8507;50.056;8.248;2023-04-09T11:42:14;14.40;99.90
16781;DHT22;8507;50.056;8.248;2023-04-09T11:44:40;14.70;99.90
16781;DHT22;8507;50.056;8.248;2023-04-09T11:47:07;14.90;99.90
16781;DHT22;8507;50.056;8.248;2023-04-09T11:49:33;15.20;99.90
16781;DHT22;8507;50.056;8.248;2023-04-09T11:52:00;15.60;99.90
16781;DHT22;8507;50.056;8.248;2023-04-09T11:54:34;15.30;99.90
16781;DHT22;8507;50.056;8.248;2023-04-09T11:57:00;15.10;99.90
16781;DHT22;8507;50.056;8.248;2023-04-09T11:59:27;14.80;99.90
16781;DHT22;8507;50.056;8.248;2023-04-09T12:01:53;14.30;99.90
16781;DHT22;8507;50.056;8.248;2023-04-09T12:04:21;14.60;99.90
16781;DHT22;8507;50.056;8.248;2023-04-09T12:06:47;15.10;99.90
16781;DHT22;8507;50.056;8.248;2023-04-09T12:09:13;15.40;99.90
16781;DHT22;8507;50.056;8.248;2023-04-09T12:11:42;14.90;99.90
16781;DHT22;8507;50.056;8.248;2023-04-09T12:14:12;14.80;99.90
16781;DHT22;8507;50.056;8.248;2023-04-09T12:16:38;15.10;99.90
16781;DHT22;8507;50.056;8.248;2023-04-09T12:19:10;15.10;99.90
16781;DHT22;8507;50.056;8.248;2023-04-09T12:24:14;15.60;99.90
16781;DHT22;8507;50.056;8.248;2023-04-09T12:26:41;15.10;99.90
16781;DHT22;8507;50.056;8.248;2023-04-09T12:29:07;15.60;99.90
16781;DHT22;8507;50.056;8.248;2023-04-09T12:31:32;16.30;99.90
16781;DHT22;8507;50.056;8.248;2023-04-09T12:33:58;16.40;99.90
16781;DHT22;8507;50.056;8.248;2023-04-09T12:36:23;15.40;99.90
16781;DHT22;8507;50.056;8.248;2023-04-09T12:38:49;14.90;99.90
16781;DHT22;8507;50.056;8.248;2023-04-09T12:41:15;15.80;99.90
16781;DHT22;8507;50.056;8.248;2023-04-09T12:43:41;16.60;99.90
16781;DHT22;8507;50.056;8.248;2023-04-09T12:46:09;16.20;99.90
16781;DHT22;8507;50.056;8.248;2023-04-09T12:48:35;15.20;99.90
16781;DHT22;8507;50.056;8.248;2023-04-09T12:51:01;15.50;99.90
16781;DHT22;8507;50.056;8.248;2023-04-09T12:53:27;15.90;99.90
16781;DHT22;8507;50.056;8.248;2023-04-09T12:55:52;15.20;99.90
16781;DHT22;8507;50.056;8.248;2023-04-09T12:58:18;15.40;99.90
16781;DHT22;8507;50.056;8.248;2023-04-09T13:00:43;16.00;99.90
16781;DHT22;8507;50.056;8.248;2023-04-09T13:03:10;16.10;99.90
16781;DHT22;8507;50.056;8.248;2023-04-09T13:05:36;16.40;99.90
16781;DHT22;8507;50.056;8.248;2023-04-09T13:08:01;15.70;99.90
16781;DHT22;8507;50.056;8.248;2023-04-09T13:10:31;15.20;99.90
16781;DHT22;8507;50.056;8.248;2023-04-09T13:12:57;15.10;99.90
16781;DHT22;8507;50.056;8.248;2023-04-09T13:15:23;15.50;99.90
16781;DHT22;8507;50.056;8.248;2023-04-09T13:17:48;15.10;99.90
16781;DHT22;8507;50.056;8.248;2023-04-09T13:20:14;15.60;99.90
16781;DHT22;8507;50.056;8.248;2023-04-09T13:22:40;14.80;99.90
16781;DHT22;8507;50.056;8.248;2023-04-09T13:25:05;14.80;99.90
16781;DHT22;8507;50.056;8.248;2023-04-09T13:27:31;15.00;99.90
16781;DHT22;8507;50.056;8.248;2023-04-09T13:29:57;15.70;99.90
16781;DHT22;8507;50.056;8.248;2023-04-09T13:32:22;15.30;99.90
16781;DHT22;8507;50.056;8.248;2023-04-09T13:34:49;15.50;99.90
16781;DHT22;8507;50.056;8.248;2023-04-09T13:37:15;16.00;99.90
16781;DHT22;8507;50.056;8.248;2023-04-09T13:39:40;16.40;99.90
16781;DHT22;8507;50.056;8.248;2023-04-09T13:42:06;16.70;99.90
16781;DHT22;8507;50.056;8.248;2023-04-09T13:44:31;15.80;99.90
16781;DHT22;8507;50.056;8.248;2023-04-09T13:46:57;16.10;99.90
16781;DHT22;8507;50.056;8.248;2023-04-09T13:49:23;16.60;99.90
16781;DHT22;8507;50.056;8.248;2023-04-09T13:51:49;16.40;99.90
16781;DHT22;8507;50.056;8.248;2023-04-09T13:54:15;15.70;99.90
16781;DHT22;8507;50.056;8.248;2023-04-09T13:56:43;15.30;99.90
16781;DHT22;8507;50.056;8.248;2023-04-09T13:59:08;15.50;99.90
16781;DHT22;8507;50.056;8.248;2023-04-09T14:01:34;15.20;99.90
16781;DHT22;8507;50.056;8.248;2023-04-09T14:04:00;15.70;99.90
16781;DHT22;8507;50.056;8.248;2023-04-09T14:06:26;16.10;99.90
16781;DHT22;8507;50.056;8.248;2023-04-09T14:08:51;16.40;99.90
16781;DHT22;8507;50.056;8.248;2023-04-09T14:11:17;16.20;99.90
16781;DHT22;8507;50.056;8.248;2023-04-09T14:13:43;16.10;99.90
16781;DHT22;8507;50.056;8.248;2023-04-09T14:16:08;15.70;99.90
16781;DHT22;8507;50.056;8.248;2023-04-09T14:18:34;16.00;99.90
16781;DHT22;8507;50.056;8.248;2023-04-09T14:21:00;15.70;99.90
16781;DHT22;8507;50.056;8.248;2023-04-09T14:23:25;15.20;99.90
16781;DHT22;8507;50.056;8.248;2023-04-09T14:25:51;15.30;99.90
16781;DHT22;8507;50.056;8.248;2023-04-09T14:28:17;15.70;99.90
16781;DHT22;8507;50.056;8.248;2023-04-09T14:30:43;16.00;99.90
16781;DHT22;8507;50.056;8.248;2023-04-09T14:33:09;16.10;99.90
16781;DHT22;8507;50.056;8.248;2023-04-09T14:35:34;16.10;99.90
16781;DHT22;8507;50.056;8.248;2023-04-09T14:38:00;16.20;99.90
16781;DHT22;8507;50.056;8.248;2023-04-09T14:40:31;16.30;99.90
16781;DHT22;8507;50.056;8.248;2023-04-09T14:42:59;15.90;99.90
16781;DHT22;8507;50.056;8.248;2023-04-09T14:45:25;15.90;99.90
16781;DHT22;8507;50.056;8.248;2023-04-09T14:47:51;15.70;99.90
16781;DHT22;8507;50.056;8.248;2023-04-09T14:50:16;15.70;99.90
16781;DHT22;8507;50.056;8.248;2023-04-09T14:52:44;15.30;99.90
16781;DHT22;8507;50.056;8.248;2023-04-09T14:55:10;15.10;99.90
16781;DHT22;8507;50.056;8.248;2023-04-09T14:57:37;15.00;99.90
16781;DHT22;8507;50.056;8.248;2023-04-09T15:00:05;14.90;99.90
16781;DHT22;8507;50.056;8.248;2023-04-09T15:02:31;14.80;99.90
16781;DHT22;8507;50.056;8.248;2023-04-09T15:04:59;15.00;99.90
16781;DHT22;8507;50.056;8.248;2023-04-09T15:07:25;14.90;99.90
16781;DHT22;8507;50.056;8.248;2023-04-09T15:09:50;15.20;99.90
16781;DHT22;8507;50.056;8.248;2023-04-09T15:12:17;15.50;99.90
16781;DHT22;8507;50.056;8.248;2023-04-09T15:14:42;15.70;99.90
16781;DHT22;8507;50.056;8.248;2023-04-09T15:17:08;15.90;99.90
16781;DHT22;8507;50.056;8.248;2023-04-09T15:19:33;16.00;99.90
16781;DHT22;8507;50.056;8.248;2023-04-09T15:21:59;16.10;99.90
16781;DHT22;8507;50.056;8.248;2023-04-09T15:24:24;16.20;99.90
16781;DHT22;8507;50.056;8.248;2023-04-09T15:26:50;16.20;99.90
16781;DHT22;8507;50.056;8.248;2023-04-09T15:29:16;16.10;99.90
16781;DHT22;8507;50.056;8.248;2023-04-09T15:31:41;16.00;99.90
16781;DHT22;8507;50.056;8.248;2023-04-09T15:34:07;15.90;99.90
16781;DHT22;8507;50.056;8.248;2023-04-09T15:36:32;15.90;99.90
16781;DHT22;8507;50.056;8.248;2023-04-09T15:38:58;16.10;99.90
16781;DHT22;8507;50.056;8.248;2023-04-09T15:41:23;16.10;99.90
16781;DHT22;8507;50.056;8.248;2023-04-09T15:43:51;16.20;99.90
16781;DHT22;8507;50.056;8.248;2023-04-09T15:46:17;16.10;99.90
16781;DHT22;8507;50.056;8.248;2023-04-09T15:48:43;16.10;99.90
16781;DHT22;8507;50.056;8.248;2023-04-09T15:51:09;16.10;99.90
16781;DHT22;8507;50.056;8.248;2023-04-09T15:53:34;15.80;99.90
16781;DHT22;8507;50.056;8.248;2023-04-09T15:56:01;15.30;99.90
16781;DHT22;8507;50.056;8.248;2023-04-09T15:58:26;15.30;99.90
16781;DHT22;8507;50.056;8.248;2023-04-09T16:00:53;15.50;99.90
16781;DHT22;8507;50.056;8.248;2023-04-09T16:03:18;15.60;99.90
16781;DHT22;8507;50.056;8.248;2023-04-09T16:05:45;15.70;99.90
16781;DHT22;8507;50.056;8.248;2023-04-09T16:08:11;15.60;99.90